Flight Track Log - Related Links

Times and Time Zones

All times are in EDT time to prevent confusion due to time zone crossing. See the N709UW flight status page for this flight to view local times or setup timezone preferences in your user account.

Time Position Orientation Groundspeed Altitude Reporting Facility
EDT Latitude Longitude Course Direction KTS MPH feet Rate Location/Type
Thu 05:19:31 PM 42.3667 -70.9833 228° Southwest 168 193 800  Level KA90
Thu 05:20:37 PM 42.3833 -70.9000 75° East 215 247 2,800 2,160 Climbing KA90
Thu 05:21:11 PM 42.3831 -70.8606 91° East 235 270 4,400 1,596 Climbing Boston Center
Thu 05:22:00 PM 42.4280 -70.7840 114° Southeast  Level FlightAware Approximate
Thu 05:22:11 PM 42.3819 -70.7789 91° East 240 276 5,300  Level Boston Center
Thu 05:23:00 PM 42.3397 -70.7246 172° South  Level FlightAware Approximate
Thu 05:23:12 PM 42.3108 -70.7611 170° South 183 211 8,100  Level Boston Center
Thu 05:24:00 PM 42.2538 -70.7859 228° Southwest  Level FlightAware Approximate
Thu 05:24:12 PM 42.2597 -70.8186 220° Southwest 183 211 10,700  Level Boston Center
Thu 05:25:13 PM 42.2403 -70.9203 256° West 262 302 12,400 1,576 Climbing Boston Center
Thu 05:26:10 PM 42.2147 -71.0469 255° West 304 350 13,800 1,831 Climbing Boston Center
Thu 05:27:11 PM 42.1931 -71.1650 256° West 345 397 16,000 2,016 Climbing Boston Center
Thu 05:28:12 PM 42.1656 -71.3086 256° West 358 412 17,900 1,574 Climbing Boston Center
Thu 05:29:13 PM 42.1481 -71.4347 259° West 363 418 19,200 1,424 Climbing Boston Center
Thu 05:30:10 PM 42.1136 -71.5836 253° West 376 433 20,700 1,487 Climbing Boston Center
Thu 05:31:10 PM 42.0856 -71.7294 256° West 388 447 22,100 1,587 Climbing Boston Center
Thu 05:32:11 PM 42.0633 -71.8753 258° West 393 452 23,900 1,475 Climbing Boston Center
Thu 05:33:12 PM 42.0411 -72.0236 259° West 400 460 25,100 1,210 Climbing Boston Center
Thu 05:34:10 PM 42.0167 -72.1775 258° West 412 474 26,300 1,068 Climbing Boston Center
Thu 05:35:10 PM 41.9522 -72.3089 237° Southwest 412 474 27,200 1,230 Climbing Boston Center
Thu 05:36:12 PM 41.8836 -72.4428 235° Southwest 426 490 28,800 893 Climbing Boston Center
Thu 05:37:11 PM 41.8147 -72.5711 234° Southwest 437 503 29,000 101 Climbing Boston Center
Thu 05:38:11 PM 41.7500 -72.6961 235° Southwest 431 496 29,000  Level Boston Center
Thu 05:39:12 PM 41.6808 -72.8236 234° Southwest 425 489 29,000  Level Boston Center
Thu 05:40:13 PM 41.6156 -72.9511 236° Southwest 425 489 29,000  Level Boston Center
Thu 05:41:10 PM 41.5461 -73.0808 234° Southwest 425 489 29,000  Level Boston Center
Thu 05:42:11 PM 41.4828 -73.2022 235° Southwest 417 480 29,000  Level Boston Center
Thu 05:43:12 PM 41.4131 -73.3369 235° Southwest 424 488 29,000  Level Boston Center
Thu 05:44:53 PM 41.3042 -73.5414 235° Southwest 426 490 29,000 148 Level New York Center
Thu 05:45:54 PM 41.2344 -73.6653 233° Southwest 426 490 29,400 504 Climbing New York Center
Thu 05:46:52 PM 41.1606 -73.7889 232° Southwest 426 490 30,000 303 Climbing New York Center
Thu 05:47:53 PM 41.0867 -73.9094 231° Southwest 431 496 30,000  Level New York Center
Thu 05:48:53 PM 41.0144 -74.0353 233° Southwest 431 496 30,000  Level New York Center
Thu 05:49:51 PM 40.9422 -74.1556 232° Southwest 431 496 30,000  Level New York Center
Thu 05:50:52 PM 40.8594 -74.2856 230° Southwest 431 496 30,000  Level New York Center
Thu 05:51:52 PM 40.7847 -74.4081 231° Southwest 436 502 30,000  Level New York Center
Thu 05:52:54 PM 40.7100 -74.5325 232° Southwest 436 502 30,000  Level New York Center
Thu 05:53:54 PM 40.6353 -74.6542 231° Southwest 431 496 30,000  Level New York Center
Thu 05:54:51 PM 40.5625 -74.7703 230° Southwest 431 496 30,000  Level New York Center
Thu 05:55:54 PM 40.4836 -74.8858 228° Southwest 431 496 30,000  Level New York Center
Thu 05:56:54 PM 40.4025 -74.9981 227° Southwest 431 496 30,000  Level New York Center
Thu 05:57:51 PM 40.3192 -75.1156 227° Southwest 431 496 30,000  Level New York Center
Thu 05:58:52 PM 40.2397 -75.2275 227° Southwest 431 496 30,000  Level New York Center
Thu 05:59:52 PM 40.1583 -75.3417 227° Southwest 431 496 30,000  Level New York Center
Thu 06:00:53 PM 40.0789 -75.4558 228° Southwest 431 496 30,000  Level New York Center
Thu 06:01:54 PM 40.0039 -75.5594 227° Southwest 431 496 30,000  Level New York Center
Thu 06:02:54 PM 39.9222 -75.6700 226° Southwest 431 496 30,000  Level New York Center
Thu 06:03:52 PM 39.8481 -75.7919 232° Southwest 431 496 30,000  Level New York Center
Thu 06:04:54 PM 39.7700 -75.9108 230° Southwest 431 496 30,000  Level New York Center
Thu 06:05:54 PM 39.6939 -76.0319 231° Southwest 436 502 30,000  Level New York Center
Thu 06:07:27 PM 39.5744 -76.2189 230° Southwest 430 495 30,000  Level Washington Center
Thu 06:08:27 PM 39.4967 -76.3419 231° Southwest 430 495 30,000  Level Washington Center
Thu 06:09:27 PM 39.4189 -76.4619 230° Southwest 430 495 30,000  Level Washington Center
Thu 06:10:27 PM 39.3408 -76.5817 230° Southwest 435 501 30,000  Level Washington Center
Thu 06:11:27 PM 39.2625 -76.7039 230° Southwest 435 501 30,000  Level Washington Center
Thu 06:12:27 PM 39.1864 -76.8233 231° Southwest 441 507 30,000  Level Washington Center
Thu 06:13:27 PM 39.1100 -76.9425 230° Southwest 441 507 30,000  Level Washington Center
Thu 06:14:27 PM 39.0275 -77.0586 228° Southwest 441 507 30,000  Level Washington Center
Thu 06:15:27 PM 38.9344 -77.1608 221° Southwest 436 502 30,000 -100 Level Washington Center
Thu 06:16:27 PM 38.8414 -77.2575 219° Southwest 436 502 29,800 -600 Descending Washington Center
Thu 06:17:27 PM 38.7419 -77.3669 221° Southwest 436 502 28,800 -900 Descending Washington Center
Thu 06:18:27 PM 38.6550 -77.4633 221° Southwest 431 496 28,000 -400 Descending Washington Center
Thu 06:19:27 PM 38.5617 -77.5644 220° Southwest 431 496 28,000 -50 Level Washington Center
Thu 06:20:27 PM 38.4703 -77.6628 220° Southwest 436 502 27,900 -550 Descending Washington Center
Thu 06:21:27 PM 38.3767 -77.7633 220° Southwest 436 502 26,900 -950 Descending Washington Center
Thu 06:22:27 PM 38.2853 -77.8639 221° Southwest 436 502 26,000 -450 Descending Washington Center
Thu 06:23:27 PM 38.1917 -77.9617 219° Southwest 436 502 26,000  Level Washington Center
Thu 06:24:27 PM 38.0956 -78.0642 220° Southwest 441 507 26,000  Level Washington Center
Thu 06:25:27 PM 38.0039 -78.1639 221° Southwest 441 507 26,000  Level Washington Center
Thu 06:26:27 PM 37.9369 -78.2722 232° Southwest 431 496 26,000  Level Washington Center
Thu 06:27:27 PM 37.8550 -78.3875 228° Southwest 436 502 26,000  Level Washington Center
Thu 06:28:27 PM 37.7750 -78.5003 228° Southwest 441 507 26,000  Level Washington Center
Thu 06:29:27 PM 37.6931 -78.6178 229° Southwest 441 507 26,000  Level Washington Center
Thu 06:30:27 PM 37.6019 -78.7453 228° Southwest 451 519 26,000  Level Washington Center
Thu 06:31:27 PM 37.5197 -78.8650 229° Southwest 451 519 26,000  Level Washington Center
Thu 06:32:27 PM 37.4350 -78.9814 228° Southwest 451 519 26,000  Level Washington Center
Thu 06:33:27 PM 37.3503 -79.0981 228° Southwest 451 519 26,000  Level Washington Center
Thu 06:34:27 PM 37.2742 -79.2067 229° Southwest 444 511 26,000  Level Washington Center
Thu 06:35:27 PM 37.2031 -79.2764 218° Southwest 399 459 26,000  Level Washington Center
Thu 06:36:27 PM 37.1175 -79.3478 214° Southwest 373 429 26,000  Level Washington Center
Thu 06:37:27 PM 37.0317 -79.4192 214° Southwest 373 429 26,000  Level Washington Center
Thu 06:38:27 PM 36.9481 -79.4878 213° Southwest 368 423 26,000  Level Washington Center
Thu 06:39:27 PM 36.8536 -79.5658 213° Southwest 368 423 26,000  Level Washington Center
Thu 06:40:27 PM 36.7700 -79.6344 213° Southwest 368 423 26,000  Level Washington Center
Thu 06:41:27 PM 36.6842 -79.7050 213° Southwest 368 423 26,000 -350 Level Washington Center
Thu 06:42:27 PM 36.5994 -79.7722 213° Southwest 370 426 25,300 -850 Descending Atlanta Center
Thu 06:43:27 PM 36.5203 -79.8358 213° Southwest 370 426 24,300 -950 Descending Atlanta Center
Thu 06:44:27 PM 36.4369 -79.9047 214° Southwest 363 418 23,400 -950 Descending Atlanta Center
Thu 06:45:27 PM 36.3597 -79.9653 212° Southwest 352 405 22,400 -700 Descending Atlanta Center
Thu 06:46:27 PM 36.2867 -80.0258 214° Southwest 338 389 22,000 -550 Descending Atlanta Center
Thu 06:47:27 PM 36.2097 -80.0939 216° Southwest 319 367 21,300 -1,250 Descending Atlanta Center
Thu 06:48:27 PM 36.1708 -80.1806 241° Southwest 298 343 19,500 -1,800 Descending Atlanta Center
Thu 06:49:27 PM 36.1531 -80.2844 258° West 298 343 17,700 -1,686 Descending Atlanta Center
Thu 06:50:28 PM 36.1356 -80.3906 258° West 304 350 16,100 -1,450 Descending Atlanta Center
Thu 06:51:27 PM 36.0719 -80.4269 205° Southwest 261 300 14,800 -1,223 Descending Atlanta Center
Thu 06:52:11 PM 36.0114 -80.4294 182° South 287 330 14,000 -900 Descending Atlanta Center
Thu 06:52:27 PM 35.9925 -80.4278 176° South 250 288 13,900 -529 Descending Atlanta Center
Thu 06:53:19 PM 35.9200 -80.4361 185° South 282 325 13,400 -454 Descending Atlanta Center
Thu 06:54:26 PM 35.8303 -80.4375 181° South 277 319 13,000 -375 Descending Atlanta Center
Thu 06:55:27 PM 35.7728 -80.4708 205° Southwest 267 307 12,600 -694 Descending Atlanta Center
Thu 06:56:27 PM 35.7094 -80.5197 212° Southwest 262 302 11,600 -1,000 Descending Atlanta Center
Thu 06:57:27 PM 35.6739 -80.5903 238° Southwest 256 295 10,600 -1,077 Descending Atlanta Center
Thu 06:58:24 PM 35.6450 -80.6731 247° West 254 292 9,500 -1,400 Descending Atlanta Center
Thu 06:59:27 PM 35.6158 -80.7483 245° Southwest 262 302 7,800 -1,610 Descending Atlanta Center
Thu 07:00:27 PM 35.5758 -80.8189 235° Southwest 257 296 6,200 -1,100 Descending Atlanta Center
Thu 07:01:27 PM 35.5214 -80.8850 225° Southwest 257 296 5,600 -952 Descending Atlanta Center
Thu 07:02:33 PM 35.4686 -80.9456 223° Southwest 244 281 4,200 -756 Descending Atlanta Center
Thu 07:03:34 PM 35.4111 -80.9783 205° Southwest 203 234 4,000 -458 Descending Atlanta Center
Thu 07:04:31 PM 35.3631 -80.9797 181° South 184 212 3,300 -779 Descending FAA TRACON SMA TRACON (SMA)
Thu 07:04:51 PM 35.3475 -80.9781 175° South 183 211 3,000 -732 Descending FAA TRACON SMA TRACON (SMA)
Thu 07:05:12 PM 35.3333 -80.9772 177° South 181 208 2,800 -571 Descending FAA TRACON SMA TRACON (SMA)

Login

Don't have an account? Register now (free) for customized features, flight alerts, and more!